Nummela Airport

EFNU · 新地区, 芬兰

使用的METAR站距离机场36 km。
罗盘
风向 的 风向 的 风向 到 风向 110° Nummela Airport 4/22
风: 5 kt, 2 beaufort

2 kt

5 kt
改变
0 ft 1.000 2.000 3.000 4.000 5.000
Cloud Cloud
FEW 3.800
METAR EFHK 241550Z 11005KT 070V140 9999 FEW038 04/M02 Q1014 NOSIG

METAR Nummela Airport - EFNU

Nummela Airport是,芬兰中的小机场。 该机场位于纬度60,33369和经度24,29690。 该机场有2条跑道: 4/22 和 9/27. 本场的ICAO机场代码为EFNU。 机场在Finland FIR中。

该航空气象观测是针对Helsinki Vantaa Airport在2024年4月24日 18:50, 当地时间进行的。

机场观察

风向为110°,速度为5 kt。 风向在070°和140°之间变化。

可见度为10 km 或者更多。

有几云在3.800 ft的高度。 没有观察到天花板。

温度为4 °C,阵风为0 °C。 露点为-2 °C,相对湿度为65%。 海平面上的气压为1014 hPa (QNH)。

白天

今天,太阳从05:36升起,在21:05降落。 这适用于Nummela Airport,世界夏令时可能有所不同。 当地时间与世界标准时间之间的时差为+3 小时。 夏令时目前正在进行中。

公司介绍

我们没有关于这个机场的公司信息。

体会

到Vliegles.nl去找飞行课程,跳伞和其他飞行体验。 浏览页面,了解Nummela Airport附近所有可用的活动。 你也可以使用搜索功能来寻找你所在地附近的特定飞行课程、跳伞或其他飞行体验。

跑道

Id 标题 侧风 逆风 侧风 %
4/22 040°-220° 5 kt 2 kt 94 %
9/27 088°-268° 2 kt 5 kt 37 %

逆风成分最大的方向会被突出显示,并用于横风计算。 这并不一定意味着这个方向在使用。

乌云

3.800 ft FEW 几云

温度 & 天气

温度 4 °C
露点 -2 °C
相对湿度 65%
风寒 0 °C
Kp-index 0 (0-9)

白天

日出
05:34
中午
13:18
日落
21:02 (1:55)

小工具

你想在你的网站上有一个关于Nummela Airport的当前航空天气(METAR)的小部件吗?

显示HTML代码
报告变更